createdAt,value
2022-10-28T00:00:28.408Z,35.83
2022-10-28T00:02:55.307Z,34.67
2022-10-28T00:05:21.976Z,34.43
2022-10-28T00:07:48.425Z,36.30
2022-10-28T00:10:14.846Z,34.57
2022-10-28T00:12:41.276Z,35.30
2022-10-28T00:15:07.911Z,35.27
2022-10-28T00:17:34.299Z,34.13
2022-10-28T00:20:00.736Z,35.13
2022-10-28T00:22:27.725Z,33.57
2022-10-28T00:24:54.246Z,34.23
2022-10-28T00:27:20.644Z,32.77
2022-10-28T00:29:47.291Z,33.20
2022-10-28T00:32:13.733Z,34.87
2022-10-28T00:34:40.213Z,35.30
2022-10-28T00:37:06.636Z,34.67
2022-10-28T00:39:33.083Z,33.23
2022-10-28T00:42:03.710Z,34.87
2022-10-28T00:44:48.946Z,32.30
2022-10-28T00:47:22.713Z,32.37
2022-10-28T00:49:49.239Z,35.43
2022-10-28T00:52:19.312Z,34.73
2022-10-28T00:54:45.754Z,32.63
2022-10-28T00:57:13.048Z,33.77
2022-10-28T00:59:40.016Z,33.37
2022-10-28T01:02:06.531Z,32.37
2022-10-28T01:04:32.988Z,32.67
2022-10-28T01:06:59.478Z,33.43
2022-10-28T01:12:03.368Z,32.20
2022-10-28T01:14:32.618Z,34.43
2022-10-28T01:17:05.121Z,32.20
2022-10-28T01:19:34.643Z,32.57
2022-10-28T01:22:09.980Z,32.33
2022-10-28T01:24:43.366Z,31.87
2022-10-28T01:27:09.774Z,32.73
2022-10-28T01:29:42.319Z,30.83
2022-10-28T01:32:08.721Z,33.00
2022-10-28T01:34:58.653Z,33.10
2022-10-28T01:37:30.690Z,33.97
2022-10-28T01:40:18.657Z,34.83
2022-10-28T01:42:46.422Z,33.33
2022-10-28T01:45:19.813Z,33.47
2022-10-28T01:47:49.228Z,31.87
2022-10-28T01:50:34.432Z,29.47
2022-10-28T01:53:01.975Z,31.97
2022-10-28T01:55:29.688Z,31.43
2022-10-28T01:57:56.917Z,31.70
2022-10-28T02:00:23.376Z,32.63
2022-10-28T02:02:50.538Z,32.63
2022-10-28T02:05:35.851Z,32.50
2022-10-28T02:08:04.490Z,31.73
2022-10-28T02:10:34.198Z,32.70
2022-10-28T02:13:00.707Z,29.93
2022-10-28T02:15:29.578Z,29.20
2022-10-28T02:18:04.601Z,30.37
2022-10-28T02:20:31.022Z,30.07
2022-10-28T02:23:01.121Z,31.77
2022-10-28T02:25:32.665Z,30.90
2022-10-28T02:28:00.198Z,28.70
2022-10-28T02:30:29.654Z,28.20
2022-10-28T02:32:59.692Z,30.87
2022-10-28T02:35:44.110Z,32.87
2022-10-28T02:38:21.202Z,33.07
2022-10-28T02:43:17.850Z,29.70
2022-10-28T02:45:45.218Z,29.20
2022-10-28T02:48:13.395Z,29.53
2022-10-28T02:50:40.440Z,30.40
2022-10-28T02:53:10.922Z,31.37
2022-10-28T02:55:37.740Z,32.73
2022-10-28T02:58:04.354Z,36.87
2022-10-28T03:00:30.735Z,36.33
2022-10-28T03:02:57.177Z,37.13
2022-10-28T03:05:23.613Z,36.60
2022-10-28T03:07:50.068Z,35.67
2022-10-28T03:10:16.550Z,36.73
2022-10-28T03:12:42.977Z,34.57
2022-10-28T03:15:09.604Z,34.90
2022-10-28T03:17:36.043Z,34.63
2022-10-28T03:20:02.478Z,37.97
2022-10-28T03:22:28.971Z,38.33
2022-10-28T03:24:55.513Z,35.10
2022-10-28T03:27:21.912Z,34.67
2022-10-28T03:29:48.336Z,33.93
2022-10-28T03:32:14.803Z,33.43
2022-10-28T03:34:41.290Z,33.80
2022-10-28T03:37:07.717Z,34.47
2022-10-28T03:39:34.206Z,33.70
2022-10-28T03:42:00.604Z,31.70
2022-10-28T03:44:27.037Z,33.70
2022-10-28T03:46:53.504Z,30.73
2022-10-28T03:49:19.928Z,30.33
2022-10-28T03:51:46.357Z,30.73
2022-10-28T03:54:12.823Z,31.53
2022-10-28T03:56:40.645Z,31.27
2022-10-28T03:59:08.972Z,29.20
2022-10-28T04:01:35.495Z,30.77
2022-10-28T04:04:02.066Z,29.90
2022-10-28T04:06:28.470Z,31.20
2022-10-28T04:08:54.931Z,30.17
2022-10-28T04:11:21.334Z,30.80
2022-10-28T04:13:47.866Z,27.00
2022-10-28T04:16:14.330Z,30.10
2022-10-28T04:18:40.780Z,30.50
2022-10-28T04:21:07.208Z,29.23
2022-10-28T04:23:33.694Z,28.40
2022-10-28T04:26:00.198Z,29.43
2022-10-28T04:28:26.714Z,28.07
2022-10-28T04:30:53.122Z,26.77
2022-10-28T04:33:19.566Z,27.90
2022-10-28T04:35:46.060Z,26.13
2022-10-28T04:38:12.836Z,25.63
2022-10-28T04:40:39.370Z,26.80
2022-10-28T04:43:08.518Z,25.53
2022-10-28T04:45:36.546Z,24.57
2022-10-28T04:48:03.220Z,25.80
2022-10-28T04:50:29.744Z,23.80
2022-10-28T04:52:56.324Z,25.13
2022-10-28T04:55:22.938Z,23.50
2022-10-28T04:57:59.066Z,25.27
2022-10-28T05:00:25.626Z,24.83
2022-10-28T05:02:52.201Z,24.53
2022-10-28T05:05:18.775Z,24.43
2022-10-28T05:07:45.195Z,26.07
2022-10-28T05:10:12.400Z,24.93
2022-10-28T05:12:42.165Z,23.77
2022-10-28T05:15:09.161Z,24.70
2022-10-28T05:17:35.568Z,25.00
2022-10-28T05:20:02.009Z,24.90
2022-10-28T05:22:28.409Z,22.53
2022-10-28T05:24:54.861Z,22.03
2022-10-28T05:27:21.262Z,22.97
2022-10-28T05:29:48.160Z,23.77
2022-10-28T05:32:14.597Z,22.90
2022-10-28T05:34:41.404Z,22.33
2022-10-28T05:37:07.833Z,21.87
2022-10-28T05:39:35.119Z,20.93
2022-10-28T05:42:01.628Z,23.77
2022-10-28T05:44:28.521Z,25.27
2022-10-28T05:46:55.331Z,24.43
2022-10-28T05:49:22.799Z,23.50
2022-10-28T05:51:49.204Z,25.33
2022-10-28T05:54:15.593Z,24.17
2022-10-28T05:56:42.061Z,23.33
2022-10-28T05:59:08.452Z,24.37
2022-10-28T06:01:34.968Z,23.57
2022-10-28T06:04:01.493Z,21.33
2022-10-28T06:06:28.313Z,23.73
2022-10-28T06:08:54.820Z,23.73
2022-10-28T06:11:19.802Z,25.13
2022-10-28T06:13:46.197Z,25.03
2022-10-28T06:16:12.937Z,25.40
2022-10-28T06:18:39.388Z,23.87
2022-10-28T06:21:05.856Z,24.40
2022-10-28T06:23:32.243Z,24.53
2022-10-28T06:25:59.401Z,25.20
2022-10-28T06:28:25.878Z,23.93
2022-10-28T06:30:52.320Z,24.80
2022-10-28T06:33:18.821Z,23.30
2022-10-28T06:35:45.262Z,22.77
2022-10-28T06:38:11.696Z,25.43
2022-10-28T06:40:46.140Z,27.27
2022-10-28T06:43:14.171Z,25.67
2022-10-28T06:45:40.605Z,23.73
2022-10-28T06:48:08.560Z,24.90
2022-10-28T06:50:36.294Z,24.90
2022-10-28T06:53:02.807Z,25.03
2022-10-28T06:55:29.307Z,25.00
2022-10-28T06:57:58.784Z,27.37
2022-10-28T07:00:26.967Z,25.67
2022-10-28T07:02:53.825Z,25.60
2022-10-28T07:05:20.776Z,26.40
2022-10-28T07:07:47.348Z,27.23
2022-10-28T07:10:13.838Z,25.80
2022-10-28T07:12:40.385Z,28.00
2022-10-28T07:15:07.141Z,24.90
2022-10-28T07:17:33.594Z,25.17
2022-10-28T07:20:00.014Z,24.17
2022-10-28T07:22:26.501Z,26.57
2022-10-28T07:24:52.905Z,24.67
2022-10-28T07:27:19.427Z,25.00
2022-10-28T07:29:45.844Z,26.60
2022-10-28T07:32:12.308Z,25.27
2022-10-28T07:34:38.748Z,24.77
2022-10-28T07:37:06.287Z,25.83
2022-10-28T07:39:32.792Z,25.97
2022-10-28T07:42:01.302Z,26.37
2022-10-28T07:44:27.933Z,24.97
2022-10-28T07:46:57.262Z,24.07
2022-10-28T07:49:24.821Z,23.43
2022-10-28T07:51:51.636Z,21.57
2022-10-28T07:54:18.173Z,22.50
2022-10-28T07:56:44.682Z,20.77
2022-10-28T07:59:11.142Z,20.13
2022-10-28T08:01:37.621Z,19.20
2022-10-28T08:04:04.179Z,18.67
2022-10-28T08:06:30.712Z,19.45
2022-10-28T08:08:57.165Z,19.20
2022-10-28T08:11:24.006Z,18.90
2022-10-28T08:13:53.610Z,19.47
2022-10-28T08:16:20.136Z,20.87
2022-10-28T08:18:46.609Z,20.93
2022-10-28T08:21:13.310Z,21.48
2022-10-28T08:23:40.072Z,20.75
2022-10-28T08:26:06.514Z,19.90
2022-10-28T08:28:33.111Z,19.25
2022-10-28T08:31:08.186Z,19.03
2022-10-28T08:33:39.291Z,18.90
2022-10-28T08:36:06.674Z,16.70
2022-10-28T08:38:33.655Z,16.75
2022-10-28T08:41:09.467Z,15.52
2022-10-28T08:43:56.688Z,16.98
2022-10-28T08:46:39.999Z,17.02
2022-10-28T08:49:13.753Z,17.33
2022-10-28T08:51:51.164Z,18.70
2022-10-28T08:54:19.885Z,18.20
2022-10-28T08:56:47.594Z,19.63
2022-10-28T08:59:19.932Z,18.58
2022-10-28T09:01:50.657Z,16.98
2022-10-28T09:04:23.399Z,18.50
2022-10-28T09:06:49.811Z,17.50
2022-10-28T09:09:18.674Z,15.80
2022-10-28T09:11:51.444Z,15.80
2022-10-28T09:14:17.888Z,14.55
2022-10-28T09:16:48.282Z,16.35
2022-10-28T09:19:33.592Z,15.00
2022-10-28T09:22:20.753Z,14.43
2022-10-28T09:25:01.442Z,15.65
2022-10-28T09:27:30.972Z,15.52
2022-10-28T09:30:01.302Z,14.98
2022-10-28T09:32:34.825Z,16.77
2022-10-28T09:35:03.720Z,17.45
2022-10-28T09:37:35.624Z,16.70
2022-10-28T09:40:14.591Z,16.83
2022-10-28T09:42:42.474Z,14.82
2022-10-28T09:45:12.896Z,13.90
2022-10-28T09:47:40.850Z,13.15
2022-10-28T09:50:13.030Z,12.15
2022-10-28T09:52:41.449Z,12.02
2022-10-28T09:55:09.352Z,11.55
2022-10-28T09:57:35.801Z,11.88
2022-10-28T10:00:02.327Z,11.18
2022-10-28T10:02:32.446Z,10.05
2022-10-28T10:05:00.029Z,9.57
2022-10-28T10:07:36.641Z,9.73
2022-10-28T10:12:36.402Z,7.20
2022-10-28T10:15:02.998Z,6.55
2022-10-28T10:17:37.842Z,6.15
2022-10-28T10:20:08.698Z,5.25
2022-10-28T10:22:39.093Z,4.72
2022-10-28T10:25:17.931Z,5.50
2022-10-28T10:28:10.813Z,4.35
2022-10-28T10:30:45.454Z,4.47
2022-10-28T10:33:17.593Z,4.10
2022-10-28T10:35:44.102Z,4.70
2022-10-28T10:38:14.052Z,5.20
2022-10-28T10:40:50.400Z,4.88
2022-10-28T10:43:35.844Z,4.43
2022-10-28T10:46:02.369Z,4.75
2022-10-28T10:48:29.308Z,5.00
2022-10-28T10:50:55.951Z,3.90
2022-10-28T10:53:29.245Z,4.18
2022-10-28T10:56:02.343Z,3.28
2022-10-28T10:58:30.267Z,3.35
2022-10-28T11:00:57.597Z,3.50
2022-10-28T11:03:24.024Z,3.38
2022-10-28T11:06:05.303Z,3.20
2022-10-28T11:08:39.178Z,2.72
2022-10-28T11:11:18.761Z,2.90
2022-10-28T11:13:46.317Z,3.00
2022-10-28T11:16:20.432Z,3.65
2022-10-28T11:18:47.639Z,3.08
2022-10-28T11:21:20.216Z,2.63
2022-10-28T11:23:56.708Z,2.50
2022-10-28T11:26:23.168Z,2.35
2022-10-28T11:28:55.729Z,2.72
2022-10-28T11:31:40.977Z,2.75
2022-10-28T11:34:33.737Z,2.10
2022-10-28T11:37:09.280Z,2.08
2022-10-28T11:39:56.002Z,2.28
2022-10-28T11:42:40.853Z,2.70
2022-10-28T11:45:17.250Z,2.70
2022-10-28T11:48:02.672Z,2.08
2022-10-28T11:50:34.331Z,2.30
2022-10-28T11:53:16.252Z,2.25
2022-10-28T11:55:43.121Z,2.10
2022-10-28T11:58:15.804Z,2.25
2022-10-28T12:00:57.698Z,1.90
2022-10-28T12:03:31.955Z,2.30
2022-10-28T12:06:01.493Z,2.10
2022-10-28T12:08:34.006Z,1.60
2022-10-28T12:11:07.257Z,1.77
2022-10-28T12:13:40.071Z,2.40
2022-10-28T12:16:08.800Z,1.75
2022-10-28T12:19:10.875Z,2.17
2022-10-28T12:21:40.954Z,2.38
2022-10-28T12:24:10.861Z,2.15
2022-10-28T12:26:41.170Z,2.13
2022-10-28T12:29:18.108Z,2.08
2022-10-28T12:32:04.006Z,2.70
2022-10-28T12:34:53.711Z,2.13
2022-10-28T12:37:21.851Z,2.10
2022-10-28T12:39:51.398Z,2.25
2022-10-28T12:42:23.902Z,1.88
2022-10-28T12:44:53.595Z,1.98
2022-10-28T12:47:43.005Z,1.95
2022-10-28T12:50:28.774Z,2.20
2022-10-28T12:53:01.303Z,2.25
2022-10-28T12:55:27.940Z,2.78
2022-10-28T12:58:15.581Z,2.42
2022-10-28T13:00:43.374Z,2.28
2022-10-28T13:03:13.425Z,2.17
2022-10-28T13:05:44.509Z,1.73
2022-10-28T13:08:30.311Z,1.90
2022-10-28T13:10:56.838Z,2.03
2022-10-28T13:13:35.807Z,1.98
2022-10-28T13:16:02.231Z,2.40
2022-10-28T13:18:40.927Z,1.70
2022-10-28T13:21:26.240Z,2.03
2022-10-28T13:23:58.887Z,2.17
2022-10-28T13:26:28.577Z,2.00
2022-10-28T13:28:55.735Z,2.38
2022-10-28T13:31:22.175Z,2.13
2022-10-28T13:33:53.086Z,1.80
2022-10-28T13:36:20.605Z,2.30
2022-10-28T13:38:50.948Z,2.35
2022-10-28T13:41:30.749Z,2.42
2022-10-28T13:43:57.920Z,3.28
2022-10-28T13:46:43.123Z,3.75
2022-10-28T13:49:45.255Z,3.08
2022-10-28T13:52:12.189Z,3.47
2022-10-28T13:54:44.918Z,3.45
2022-10-28T13:57:16.985Z,4.00
2022-10-28T13:59:47.889Z,4.10
2022-10-28T14:05:11.146Z,3.25
2022-10-28T14:07:42.031Z,3.05
2022-10-28T14:10:27.514Z,3.38
2022-10-28T14:13:03.859Z,2.85
2022-10-28T14:15:39.759Z,2.80
2022-10-28T14:18:41.469Z,3.33
2022-10-28T14:21:02.137Z,2.50
2022-10-28T14:23:28.702Z,2.65
2022-10-28T14:25:56.111Z,2.92
2022-10-28T14:28:32.065Z,2.58
2022-10-28T14:31:07.972Z,3.10
2022-10-28T14:33:34.433Z,3.20
2022-10-28T14:36:19.365Z,2.70
2022-10-28T14:39:07.303Z,3.00
2022-10-28T14:41:50.980Z,3.33
2022-10-28T14:44:32.832Z,3.17
2022-10-28T14:47:08.518Z,3.50
2022-10-28T14:49:35.537Z,3.65
2022-10-28T14:52:10.679Z,3.13
2022-10-28T14:54:40.905Z,3.70
2022-10-28T14:57:07.516Z,3.17
2022-10-28T14:59:37.226Z,2.90
2022-10-28T15:02:16.008Z,3.50
2022-10-28T15:04:44.086Z,4.22
2022-10-28T15:07:14.731Z,4.03
2022-10-28T15:09:43.493Z,4.30
2022-10-28T15:12:11.186Z,5.15
2022-10-28T15:14:47.650Z,5.30
2022-10-28T15:17:15.504Z,5.18
2022-10-28T15:19:41.982Z,5.25
2022-10-28T15:22:20.728Z,5.90
2022-10-28T15:24:57.352Z,6.63
2022-10-28T15:27:24.132Z,7.18
2022-10-28T15:29:50.680Z,6.38
2022-10-28T15:32:20.230Z,6.80
2022-10-28T15:34:46.894Z,6.57
2022-10-28T15:37:18.245Z,6.57
2022-10-28T15:39:49.368Z,6.60
2022-10-28T15:42:28.202Z,6.63
2022-10-28T15:44:54.890Z,6.95
2022-10-28T15:47:47.896Z,7.95
2022-10-28T15:50:17.384Z,7.32
2022-10-28T15:52:48.365Z,7.65
2022-10-28T15:55:35.517Z,7.03
2022-10-28T15:58:13.746Z,6.97
2022-10-28T16:00:52.617Z,7.07
2022-10-28T16:03:26.113Z,6.95
2022-10-28T16:05:53.303Z,8.13
2022-10-28T16:08:20.587Z,7.15
2022-10-28T16:10:48.402Z,8.40
2022-10-28T16:13:34.766Z,6.82
2022-10-28T16:16:06.401Z,8.10
2022-10-28T16:18:33.571Z,8.55
2022-10-28T16:21:00.324Z,8.90
2022-10-28T16:23:28.607Z,8.75
2022-10-28T16:25:55.076Z,10.07
2022-10-28T16:28:23.667Z,10.52
2022-10-28T16:30:50.885Z,10.07
2022-10-28T16:33:17.415Z,11.98
2022-10-28T16:35:43.889Z,12.10
2022-10-28T16:38:13.659Z,14.70
2022-10-28T16:40:55.316Z,17.42
2022-10-28T16:43:23.531Z,16.50
2022-10-28T16:45:50.476Z,18.02
2022-10-28T16:48:17.121Z,16.70
2022-10-28T16:50:44.874Z,20.08
2022-10-28T16:53:12.276Z,17.20
2022-10-28T16:55:38.740Z,20.98
2022-10-28T16:58:05.544Z,18.52
2022-10-28T17:00:32.168Z,19.42
2022-10-28T17:02:58.747Z,18.23
2022-10-28T17:05:25.179Z,17.25
2022-10-28T17:07:51.895Z,17.40
2022-10-28T17:10:18.506Z,17.00
2022-10-28T17:12:44.970Z,19.55
2022-10-28T17:15:11.579Z,16.35
2022-10-28T17:17:37.989Z,18.83
2022-10-28T17:20:04.722Z,18.33
2022-10-28T17:22:31.268Z,18.80
2022-10-28T17:24:57.798Z,19.45
2022-10-28T17:27:24.251Z,19.85
2022-10-28T17:29:50.858Z,18.77
2022-10-28T17:32:17.421Z,19.67
2022-10-28T17:34:43.861Z,18.75
2022-10-28T17:37:10.509Z,22.80
2022-10-28T17:39:37.930Z,24.08
2022-10-28T17:42:04.414Z,21.77
2022-10-28T17:44:30.951Z,22.77
2022-10-28T17:46:57.459Z,21.42
2022-10-28T17:49:23.903Z,22.58
2022-10-28T17:51:51.043Z,30.80
2022-10-28T17:54:17.914Z,28.70
2022-10-28T17:56:45.653Z,27.27
2022-10-28T17:59:12.200Z,29.05
2022-10-28T18:01:39.037Z,28.13
2022-10-28T18:04:06.313Z,28.95
2022-10-28T18:06:32.861Z,29.05
2022-10-28T18:08:59.345Z,27.25
2022-10-28T18:11:27.701Z,28.13
2022-10-28T18:13:56.002Z,26.73
2022-10-28T18:16:24.520Z,26.02
2022-10-28T18:18:51.718Z,27.92
2022-10-28T18:21:18.216Z,24.02
2022-10-28T18:23:44.673Z,22.38
2022-10-28T18:26:11.934Z,20.48
2022-10-28T18:28:38.485Z,20.65
2022-10-28T18:31:09.863Z,20.77
2022-10-28T18:33:36.347Z,18.73
2022-10-28T18:36:03.369Z,19.65
2022-10-28T18:38:30.794Z,20.92
2022-10-28T18:40:57.338Z,21.02
2022-10-28T18:43:23.849Z,19.58
2022-10-28T18:45:50.349Z,19.25
2022-10-28T18:48:16.968Z,19.85
2022-10-28T18:50:45.685Z,18.02
2022-10-28T18:53:14.942Z,18.95
2022-10-28T18:55:41.391Z,18.15
2022-10-28T18:58:09.947Z,19.42
2022-10-28T19:00:36.487Z,19.25
2022-10-28T19:03:02.908Z,18.10
2022-10-28T19:05:29.409Z,19.85
2022-10-28T19:07:56.169Z,19.08
2022-10-28T19:10:23.390Z,20.60
2022-10-28T19:12:53.067Z,20.30
2022-10-28T19:15:20.131Z,19.52
2022-10-28T19:17:46.590Z,20.00
2022-10-28T19:20:13.045Z,18.58
2022-10-28T19:22:39.542Z,17.73
2022-10-28T19:25:06.308Z,17.75
2022-10-28T19:27:32.791Z,15.65
2022-10-28T19:30:00.858Z,15.40
2022-10-28T19:32:27.438Z,16.77
2022-10-28T19:34:53.912Z,14.65
2022-10-28T19:37:21.134Z,16.35
2022-10-28T19:39:47.596Z,15.20
2022-10-28T19:42:14.048Z,16.30
2022-10-28T19:44:40.527Z,16.52
2022-10-28T19:47:07.158Z,19.02
2022-10-28T19:49:39.293Z,17.05
2022-10-28T19:52:07.188Z,17.40
2022-10-28T19:54:33.665Z,16.95
2022-10-28T19:57:00.153Z,18.10
2022-10-28T19:59:26.844Z,19.00
2022-10-28T20:01:53.342Z,19.17
2022-10-28T20:04:21.607Z,19.08
2022-10-28T20:06:48.215Z,20.38
2022-10-28T20:09:14.673Z,19.30
2022-10-28T20:11:41.124Z,19.33
2022-10-28T20:14:09.973Z,21.55
2022-10-28T20:16:36.439Z,21.02
2022-10-28T20:19:03.300Z,20.50
2022-10-28T20:21:30.190Z,19.45
2022-10-28T20:23:57.036Z,18.52
2022-10-28T20:26:24.296Z,19.35
2022-10-28T20:28:50.812Z,18.88
2022-10-28T20:31:18.086Z,18.65
2022-10-28T20:33:44.771Z,17.58
2022-10-28T20:36:31.480Z,19.77
2022-10-28T20:39:01.863Z,20.00
2022-10-28T20:41:29.335Z,21.98
2022-10-28T20:43:55.850Z,21.55
2022-10-28T20:46:22.495Z,22.90
2022-10-28T20:48:49.048Z,21.98
2022-10-28T20:51:15.526Z,19.45
2022-10-28T20:53:42.001Z,18.85
2022-10-28T20:56:08.559Z,17.27
2022-10-28T20:58:35.066Z,20.27
2022-10-28T21:01:07.557Z,21.23
2022-10-28T21:03:33.981Z,20.23
2022-10-28T21:06:02.053Z,18.60
2022-10-28T21:08:28.638Z,18.42
2022-10-28T21:10:55.081Z,19.40
2022-10-28T21:13:21.525Z,18.88
2022-10-28T21:15:50.725Z,17.23
2022-10-28T21:18:19.452Z,17.33
2022-10-28T21:20:45.974Z,16.42
2022-10-28T21:23:13.137Z,15.98
2022-10-28T21:25:40.131Z,17.15
2022-10-28T21:28:06.571Z,15.15
2022-10-28T21:30:33.052Z,15.35
2022-10-28T21:32:59.419Z,14.73
2022-10-28T21:35:26.920Z,16.42
2022-10-28T21:37:54.313Z,16.17
2022-10-28T21:40:21.135Z,17.13
2022-10-28T21:42:50.746Z,16.65
2022-10-28T21:45:18.000Z,15.77
2022-10-28T21:47:44.461Z,16.95
2022-10-28T21:50:10.937Z,17.23
2022-10-28T21:52:37.382Z,18.25
2022-10-28T21:55:09.921Z,19.60
2022-10-28T21:57:47.284Z,19.98
2022-10-28T22:00:13.939Z,20.90
2022-10-28T22:02:40.426Z,21.20
2022-10-28T22:05:07.398Z,20.98
2022-10-28T22:07:33.819Z,21.02
2022-10-28T22:10:00.291Z,19.08
2022-10-28T22:12:26.732Z,21.08
2022-10-28T22:14:53.271Z,20.65
2022-10-28T22:17:19.833Z,19.90
2022-10-28T22:19:46.517Z,20.48
2022-10-28T22:22:14.042Z,21.85
2022-10-28T22:24:40.464Z,21.92
2022-10-28T22:27:06.927Z,21.15
2022-10-28T22:29:33.340Z,22.25
2022-10-28T22:31:59.766Z,21.67
2022-10-28T22:34:26.239Z,22.15
2022-10-28T22:36:52.700Z,21.95
2022-10-28T22:39:19.118Z,20.15
2022-10-28T22:41:45.573Z,20.02
2022-10-28T22:44:12.288Z,19.83
2022-10-28T22:46:40.872Z,18.98
2022-10-28T22:49:07.294Z,19.58
2022-10-28T22:51:33.715Z,19.10
2022-10-28T22:54:00.172Z,19.75
2022-10-28T22:56:27.317Z,19.40
2022-10-28T22:58:58.259Z,21.00
2022-10-28T23:01:25.571Z,21.45
2022-10-28T23:03:52.592Z,21.88
2022-10-28T23:06:22.879Z,20.45
2022-10-28T23:08:49.547Z,21.55
2022-10-28T23:11:16.982Z,23.17
2022-10-28T23:13:43.521Z,21.45
2022-10-28T23:16:10.662Z,19.50
2022-10-28T23:18:37.233Z,19.80
2022-10-28T23:21:06.293Z,21.67
2022-10-28T23:23:32.732Z,19.88
2022-10-28T23:25:59.143Z,19.50
2022-10-28T23:28:25.657Z,18.15
2022-10-28T23:30:52.190Z,19.50
2022-10-28T23:33:18.609Z,18.83
2022-10-28T23:35:45.076Z,18.98
2022-10-28T23:38:16.464Z,17.80
2022-10-28T23:40:42.896Z,18.65
2022-10-28T23:43:09.417Z,17.70
2022-10-28T23:45:35.873Z,17.52
2022-10-28T23:48:02.314Z,16.83
2022-10-28T23:50:28.794Z,17.08
2022-10-28T23:52:55.837Z,15.68
2022-10-28T23:55:22.462Z,15.55
2022-10-28T23:57:48.870Z,16.10
